Pagrindinis puslapis
METAR-TAF:

METAR-TAF

Oro uostai :

Torsby, Švedija

platuma: 60-09-17N, ilguma: 12-59-40E, Aukštis: 120 m

Dabartinis oras

Ataskaita buvo paskelbta 27 minutes, ne 12:50 UTC
Vėjas 4 kt iš Šiaurės Vakarų, svyruoja nuo Vakarų ir Šiaurės
Temperatūra 6°C
Drėgmė 61%
Slėgis 1000 hPa
Matomumas 10 km arba daugiau

METAR: ESST 191250Z AUTO 32004KT 280V350 9999 NCD 06/M01 Q1000

Laikas: 14:17 (13:17 UTC)


TAF: trūkstamas

Orai ataskaitas ir orų prognozės (METAR, TAF).

turimą stotys yra geltonos ir raudonos taškus žemėlapyje.

Perkelti pele per norėdami pamatyti stoties vardą.

Tada spustelėkite, norėdami matyti oro stebėjimo ir prognozės.

Norėdami pakeisti žemėlapį: spustelėkite ant žalios mygtukų su juodo kryžiaus žemyn,; žalią mygtuką su brūkšneliu, jei norite nutolinti; arba žalių rodyklių gretimoms žemėlapius.


METAR-TAF: